sensor_id;sensor_type;location;lat;lon;timestamp;pressure;altitude;pressure_sealevel;temperature;humidity
19783;BME280;10051;40.294;-3.754;2023-03-15T00:00:39;94529.69;;;13.30;48.08
19783;BME280;10051;40.294;-3.754;2023-03-15T00:03:07;94558.59;;;13.41;48.18
19783;BME280;10051;40.294;-3.754;2023-03-15T00:05:35;94565.53;;;13.36;48.81
19783;BME280;10051;40.294;-3.754;2023-03-15T00:08:04;94482.16;;;12.92;48.28
19783;BME280;10051;40.294;-3.754;2023-03-15T00:10:29;94528.19;;;13.24;48.08
19783;BME280;10051;40.294;-3.754;2023-03-15T00:12:55;94536.75;;;13.16;48.32
19783;BME280;10051;40.294;-3.754;2023-03-15T00:15:20;94549.44;;;13.33;48.25
19783;BME280;10051;40.294;-3.754;2023-03-15T00:17:46;94558.16;;;13.33;48.33
19783;BME280;10051;40.294;-3.754;2023-03-15T00:20:12;94509.78;;;13.00;47.95
19783;BME280;10051;40.294;-3.754;2023-03-15T00:22:43;94565.28;;;13.33;48.32
19783;BME280;10051;40.294;-3.754;2023-03-15T00:25:09;94497.50;;;12.90;47.92
19783;BME280;10051;40.294;-3.754;2023-03-15T00:27:34;94545.66;;;13.20;48.03
19783;BME280;10051;40.294;-3.754;2023-03-15T00:30:00;94564.03;;;13.30;48.28
19783;BME280;10051;40.294;-3.754;2023-03-15T00:32:25;94501.22;;;12.89;48.06
19783;BME280;10051;40.294;-3.754;2023-03-15T00:34:51;94561.44;;;13.25;48.27
19783;BME280;10051;40.294;-3.754;2023-03-15T00:37:19;94521.84;;;13.06;48.07
19783;BME280;10051;40.294;-3.754;2023-03-15T00:39:48;94472.22;;;12.64;47.88
19783;BME280;10051;40.294;-3.754;2023-03-15T00:42:14;94470.44;;;12.60;48.07
19783;BME280;10051;40.294;-3.754;2023-03-15T00:44:43;94540.81;;;13.08;48.19
19783;BME280;10051;40.294;-3.754;2023-03-15T00:47:10;94520.13;;;12.96;48.41
19783;BME280;10051;40.294;-3.754;2023-03-15T00:49:37;94543.66;;;13.12;47.94
19783;BME280;10051;40.294;-3.754;2023-03-15T00:52:03;94486.69;;;12.67;48.26
19783;BME280;10051;40.294;-3.754;2023-03-15T00:54:29;94522.31;;;12.89;48.30
19783;BME280;10051;40.294;-3.754;2023-03-15T00:56:58;94544.28;;;13.03;48.44
19783;BME280;10051;40.294;-3.754;2023-03-15T00:59:24;94564.09;;;13.25;48.13
19783;BME280;10051;40.294;-3.754;2023-03-15T01:01:50;94524.41;;;12.92;48.34
19783;BME280;10051;40.294;-3.754;2023-03-15T01:04:15;94553.44;;;13.11;48.00
19783;BME280;10051;40.294;-3.754;2023-03-15T01:06:41;94501.97;;;12.70;48.54
19783;BME280;10051;40.294;-3.754;2023-03-15T01:09:08;94507.81;;;12.67;48.44
19783;BME280;10051;40.294;-3.754;2023-03-15T01:11:34;94500.88;;;12.52;48.95
19783;BME280;10051;40.294;-3.754;2023-03-15T01:14:00;94530.47;;;12.68;49.05
19783;BME280;10051;40.294;-3.754;2023-03-15T01:16:28;94521.06;;;12.62;49.16
19783;BME280;10051;40.294;-3.754;2023-03-15T01:18:54;94568.75;;;12.90;49.34
19783;BME280;10051;40.294;-3.754;2023-03-15T01:21:21;94563.41;;;12.76;49.21
19783;BME280;10051;40.294;-3.754;2023-03-15T01:23:47;94565.53;;;12.74;49.40
19783;BME280;10051;40.294;-3.754;2023-03-15T01:26:14;94531.41;;;12.58;49.65
19783;BME280;10051;40.294;-3.754;2023-03-15T01:28:43;94545.94;;;12.56;49.68
19783;BME280;10051;40.294;-3.754;2023-03-15T01:31:20;94558.44;;;12.69;49.92
19783;BME280;10051;40.294;-3.754;2023-03-15T01:33:46;94503.50;;;11.98;50.32
19783;BME280;10051;40.294;-3.754;2023-03-15T01:36:12;94503.78;;;12.02;50.30
19783;BME280;10051;40.294;-3.754;2023-03-15T01:38:38;94475.97;;;11.85;50.22
19783;BME280;10051;40.294;-3.754;2023-03-15T01:41:04;94550.16;;;11.98;51.71
19783;BME280;10051;40.294;-3.754;2023-03-15T01:43:30;94515.50;;;11.51;52.50
19783;BME280;10051;40.294;-3.754;2023-03-15T01:48:40;94541.88;;;11.80;52.72
19783;BME280;10051;40.294;-3.754;2023-03-15T01:56:29;94511.16;;;11.30;54.49
19783;BME280;10051;40.294;-3.754;2023-03-15T01:58:58;94530.25;;;11.52;54.46
19783;BME280;10051;40.294;-3.754;2023-03-15T02:01:26;94523.88;;;11.58;54.65
19783;BME280;10051;40.294;-3.754;2023-03-15T02:04:00;94523.28;;;11.66;54.40
19783;BME280;10051;40.294;-3.754;2023-03-15T02:06:30;94529.63;;;11.65;54.42
19783;BME280;10051;40.294;-3.754;2023-03-15T02:09:03;94485.16;;;11.24;54.47
19783;BME280;10051;40.294;-3.754;2023-03-15T02:11:29;94469.25;;;11.05;55.20
19783;BME280;10051;40.294;-3.754;2023-03-15T02:13:55;94467.47;;;10.95;55.17
19783;BME280;10051;40.294;-3.754;2023-03-15T02:16:22;94528.66;;;11.16;55.67
19783;BME280;10051;40.294;-3.754;2023-03-15T02:18:49;94483.66;;;10.67;56.19
19783;BME280;10051;40.294;-3.754;2023-03-15T02:23:58;94517.28;;;10.76;56.70
19783;BME280;10051;40.294;-3.754;2023-03-15T02:26:41;94468.00;;;10.36;56.66
19783;BME280;10051;40.294;-3.754;2023-03-15T02:29:09;94473.75;;;10.44;56.74
19783;BME280;10051;40.294;-3.754;2023-03-15T02:31:35;94501.00;;;10.68;56.97
19783;BME280;10051;40.294;-3.754;2023-03-15T02:34:04;94456.94;;;10.45;56.50
19783;BME280;10051;40.294;-3.754;2023-03-15T02:36:32;94503.00;;;10.87;56.69
19783;BME280;10051;40.294;-3.754;2023-03-15T02:38:58;94508.50;;;10.96;56.23
19783;BME280;10051;40.294;-3.754;2023-03-15T02:41:30;94435.34;;;10.53;56.71
19783;BME280;10051;40.294;-3.754;2023-03-15T02:44:04;94438.38;;;10.76;55.69
19783;BME280;10051;40.294;-3.754;2023-03-15T02:46:31;94504.66;;;11.23;55.28
19783;BME280;10051;40.294;-3.754;2023-03-15T02:48:57;94479.91;;;11.24;54.17
19783;BME280;10051;40.294;-3.754;2023-03-15T02:51:26;94462.34;;;11.14;53.66
19783;BME280;10051;40.294;-3.754;2023-03-15T02:53:52;94485.91;;;11.29;53.36
19783;BME280;10051;40.294;-3.754;2023-03-15T02:56:18;94473.56;;;11.25;53.12
19783;BME280;10051;40.294;-3.754;2023-03-15T02:58:44;94435.22;;;11.13;53.16
19783;BME280;10051;40.294;-3.754;2023-03-15T03:01:14;94468.44;;;11.44;52.62
19783;BME280;10051;40.294;-3.754;2023-03-15T03:03:42;94390.91;;;10.91;52.64
19783;BME280;10051;40.294;-3.754;2023-03-15T03:06:09;94443.78;;;11.29;52.88
19783;BME280;10051;40.294;-3.754;2023-03-15T03:08:35;94413.44;;;11.08;53.04
19783;BME280;10051;40.294;-3.754;2023-03-15T03:11:01;94465.13;;;11.28;53.55
19783;BME280;10051;40.294;-3.754;2023-03-15T03:13:27;94358.03;;;10.54;53.94
19783;BME280;10051;40.294;-3.754;2023-03-15T03:15:52;94401.03;;;10.79;54.15
19783;BME280;10051;40.294;-3.754;2023-03-15T03:18:40;94444.22;;;11.07;54.23
19783;BME280;10051;40.294;-3.754;2023-03-15T03:21:08;94430.69;;;10.84;55.12
19783;BME280;10051;40.294;-3.754;2023-03-15T03:23:35;94370.19;;;10.45;54.86
19783;BME280;10051;40.294;-3.754;2023-03-15T03:26:02;94397.44;;;10.59;54.92
19783;BME280;10051;40.294;-3.754;2023-03-15T03:28:31;94427.53;;;10.88;54.98
19783;BME280;10051;40.294;-3.754;2023-03-15T03:30:57;94429.59;;;10.91;54.82
19783;BME280;10051;40.294;-3.754;2023-03-15T03:33:23;94429.22;;;11.08;54.19
19783;BME280;10051;40.294;-3.754;2023-03-15T03:35:49;94414.06;;;10.89;54.42
19783;BME280;10051;40.294;-3.754;2023-03-15T03:38:15;94355.47;;;10.38;55.24
19783;BME280;10051;40.294;-3.754;2023-03-15T03:40:41;94407.34;;;10.78;55.06
19783;BME280;10051;40.294;-3.754;2023-03-15T03:43:07;94419.38;;;10.84;54.78
19783;BME280;10051;40.294;-3.754;2023-03-15T03:45:33;94452.56;;;11.20;54.80
19783;BME280;10051;40.294;-3.754;2023-03-15T03:48:02;94433.09;;;10.81;55.45
19783;BME280;10051;40.294;-3.754;2023-03-15T03:50:27;94402.78;;;10.38;55.95
19783;BME280;10051;40.294;-3.754;2023-03-15T03:52:53;94429.03;;;10.49;56.20
19783;BME280;10051;40.294;-3.754;2023-03-15T03:55:19;94412.84;;;10.26;56.13
19783;BME280;10051;40.294;-3.754;2023-03-15T03:57:49;94450.84;;;10.60;55.65
19783;BME280;10051;40.294;-3.754;2023-03-15T04:00:16;94382.59;;;10.29;55.83
19783;BME280;10051;40.294;-3.754;2023-03-15T04:02:42;94437.44;;;10.51;55.69
19783;BME280;10051;40.294;-3.754;2023-03-15T04:05:09;94454.78;;;10.52;56.38
19783;BME280;10051;40.294;-3.754;2023-03-15T04:07:35;94469.56;;;10.43;56.54
19783;BME280;10051;40.294;-3.754;2023-03-15T04:10:01;94446.53;;;10.08;57.77
19783;BME280;10051;40.294;-3.754;2023-03-15T04:12:27;94473.88;;;10.02;59.07
19783;BME280;10051;40.294;-3.754;2023-03-15T04:14:53;94468.59;;;10.02;59.05
19783;BME280;10051;40.294;-3.754;2023-03-15T04:17:18;94418.25;;;9.74;59.45
19783;BME280;10051;40.294;-3.754;2023-03-15T04:19:44;94471.53;;;10.01;59.13
19783;BME280;10051;40.294;-3.754;2023-03-15T04:22:11;94413.53;;;9.81;59.03
19783;BME280;10051;40.294;-3.754;2023-03-15T04:24:43;94412.47;;;9.88;58.31
19783;BME280;10051;40.294;-3.754;2023-03-15T04:27:09;94293.41;;;9.32;58.16
19783;BME280;10051;40.294;-3.754;2023-03-15T04:29:40;94458.00;;;10.44;57.46
19783;BME280;10051;40.294;-3.754;2023-03-15T04:32:06;94414.63;;;10.41;56.53
19783;BME280;10051;40.294;-3.754;2023-03-15T04:34:32;94455.94;;;10.85;55.79
19783;BME280;10051;40.294;-3.754;2023-03-15T04:37:03;94458.59;;;10.80;55.97
19783;BME280;10051;40.294;-3.754;2023-03-15T04:39:30;94367.22;;;10.01;56.64
19783;BME280;10051;40.294;-3.754;2023-03-15T04:41:55;94375.63;;;9.98;56.93
19783;BME280;10051;40.294;-3.754;2023-03-15T04:44:21;94449.88;;;10.30;57.52
19783;BME280;10051;40.294;-3.754;2023-03-15T04:46:50;94315.47;;;9.31;58.15
19783;BME280;10051;40.294;-3.754;2023-03-15T04:49:16;94333.03;;;9.30;58.62
19783;BME280;10051;40.294;-3.754;2023-03-15T04:51:42;94391.25;;;9.53;59.16
19783;BME280;10051;40.294;-3.754;2023-03-15T04:54:07;94368.19;;;9.34;59.45
19783;BME280;10051;40.294;-3.754;2023-03-15T04:56:33;94391.31;;;9.27;60.49
19783;BME280;10051;40.294;-3.754;2023-03-15T04:59:00;94445.59;;;9.63;60.72
19783;BME280;10051;40.294;-3.754;2023-03-15T05:01:29;94418.31;;;9.48;60.32
19783;BME280;10051;40.294;-3.754;2023-03-15T05:03:56;94433.25;;;9.69;60.33
19783;BME280;10051;40.294;-3.754;2023-03-15T05:06:21;94378.19;;;9.22;60.74
19783;BME280;10051;40.294;-3.754;2023-03-15T05:08:47;94400.47;;;9.40;61.36
19783;BME280;10051;40.294;-3.754;2023-03-15T05:11:12;94438.50;;;9.69;61.12
19783;BME280;10051;40.294;-3.754;2023-03-15T05:13:38;94413.84;;;9.59;60.70
19783;BME280;10051;40.294;-3.754;2023-03-15T05:16:04;94447.16;;;9.74;59.95
19783;BME280;10051;40.294;-3.754;2023-03-15T05:18:29;94337.28;;;9.05;60.71
19783;BME280;10051;40.294;-3.754;2023-03-15T05:20:55;94403.34;;;9.49;60.96
19783;BME280;10051;40.294;-3.754;2023-03-15T05:23:24;94423.28;;;9.71;60.03
19783;BME280;10051;40.294;-3.754;2023-03-15T05:25:54;94408.88;;;9.47;60.91
19783;BME280;10051;40.294;-3.754;2023-03-15T05:28:21;94420.38;;;9.51;60.74
19783;BME280;10051;40.294;-3.754;2023-03-15T05:30:48;94444.50;;;9.85;59.85
19783;BME280;10051;40.294;-3.754;2023-03-15T05:33:14;94438.13;;;10.01;59.57
19783;BME280;10051;40.294;-3.754;2023-03-15T05:35:40;94442.81;;;10.25;58.64
19783;BME280;10051;40.294;-3.754;2023-03-15T05:38:06;94361.06;;;9.56;58.11
19783;BME280;10051;40.294;-3.754;2023-03-15T05:40:32;94388.00;;;9.97;57.17
19783;BME280;10051;40.294;-3.754;2023-03-15T05:43:00;94420.75;;;10.21;56.99
19783;BME280;10051;40.294;-3.754;2023-03-15T05:45:26;94434.75;;;10.01;58.00
19783;BME280;10051;40.294;-3.754;2023-03-15T05:47:51;94323.88;;;9.12;58.65
19783;BME280;10051;40.294;-3.754;2023-03-15T05:50:17;94386.78;;;9.64;58.51
19783;BME280;10051;40.294;-3.754;2023-03-15T05:52:43;94409.81;;;9.88;57.99
19783;BME280;10051;40.294;-3.754;2023-03-15T05:55:08;94415.66;;;9.69;58.36
19783;BME280;10051;40.294;-3.754;2023-03-15T05:57:34;94443.69;;;9.84;58.80
19783;BME280;10051;40.294;-3.754;2023-03-15T06:00:00;94447.69;;;9.71;59.71
19783;BME280;10051;40.294;-3.754;2023-03-15T06:02:25;94401.78;;;9.43;59.83
19783;BME280;10051;40.294;-3.754;2023-03-15T06:04:52;94429.06;;;9.67;59.25
19783;BME280;10051;40.294;-3.754;2023-03-15T06:07:18;94386.31;;;9.26;60.04
19783;BME280;10051;40.294;-3.754;2023-03-15T06:09:45;94405.72;;;9.25;60.13
19783;BME280;10051;40.294;-3.754;2023-03-15T06:12:11;94334.66;;;8.69;61.13
19783;BME280;10051;40.294;-3.754;2023-03-15T06:14:36;94408.38;;;8.99;62.23
19783;BME280;10051;40.294;-3.754;2023-03-15T06:17:02;94385.53;;;8.84;61.97
19783;BME280;10051;40.294;-3.754;2023-03-15T06:19:27;94434.31;;;9.05;62.62
19783;BME280;10051;40.294;-3.754;2023-03-15T06:21:53;94402.59;;;8.86;62.19
19783;BME280;10051;40.294;-3.754;2023-03-15T06:24:19;94442.44;;;9.09;62.80
19783;BME280;10051;40.294;-3.754;2023-03-15T06:26:44;94370.84;;;8.72;62.18
19783;BME280;10051;40.294;-3.754;2023-03-15T06:29:10;94466.59;;;9.52;61.63
19783;BME280;10051;40.294;-3.754;2023-03-15T06:31:36;94448.47;;;9.66;60.82
19783;BME280;10051;40.294;-3.754;2023-03-15T06:34:01;94457.13;;;9.67;60.49
19783;BME280;10051;40.294;-3.754;2023-03-15T06:36:27;94396.28;;;9.29;60.04
19783;BME280;10051;40.294;-3.754;2023-03-15T06:38:52;94442.44;;;9.71;59.46
19783;BME280;10051;40.294;-3.754;2023-03-15T06:41:19;94362.19;;;9.23;59.62
19783;BME280;10051;40.294;-3.754;2023-03-15T06:43:45;94421.75;;;9.23;60.68
19783;BME280;10051;40.294;-3.754;2023-03-15T06:46:11;94481.28;;;9.59;61.04
19783;BME280;10051;40.294;-3.754;2023-03-15T06:48:36;94431.72;;;9.05;61.71
19783;BME280;10051;40.294;-3.754;2023-03-15T06:51:02;94476.06;;;9.48;61.02
19783;BME280;10051;40.294;-3.754;2023-03-15T06:53:30;94348.03;;;8.68;60.97
19783;BME280;10051;40.294;-3.754;2023-03-15T06:55:55;94443.00;;;9.27;60.77
19783;BME280;10051;40.294;-3.754;2023-03-15T06:58:21;94475.25;;;9.58;61.33
19783;BME280;10051;40.294;-3.754;2023-03-15T07:00:47;94477.59;;;9.75;60.36
19783;BME280;10051;40.294;-3.754;2023-03-15T07:03:13;94468.69;;;9.61;60.30
19783;BME280;10051;40.294;-3.754;2023-03-15T07:05:39;94468.97;;;9.70;60.56
19783;BME280;10051;40.294;-3.754;2023-03-15T07:08:05;94484.97;;;9.58;61.53
19783;BME280;10051;40.294;-3.754;2023-03-15T07:10:31;94445.63;;;9.32;61.38
19783;BME280;10051;40.294;-3.754;2023-03-15T07:12:57;94434.59;;;9.14;61.91
19783;BME280;10051;40.294;-3.754;2023-03-15T07:15:25;94421.47;;;9.14;61.82
19783;BME280;10051;40.294;-3.754;2023-03-15T07:17:51;94472.38;;;9.49;62.10
19783;BME280;10051;40.294;-3.754;2023-03-15T07:20:16;94475.00;;;9.60;62.21
19783;BME280;10051;40.294;-3.754;2023-03-15T07:22:42;94478.66;;;9.74;61.82
19783;BME280;10051;40.294;-3.754;2023-03-15T07:25:10;94390.25;;;9.23;61.69
19783;BME280;10051;40.294;-3.754;2023-03-15T07:27:38;94393.41;;;9.25;60.67
19783;BME280;10051;40.294;-3.754;2023-03-15T07:30:04;94339.63;;;8.76;60.80
19783;BME280;10051;40.294;-3.754;2023-03-15T07:32:32;94299.75;;;8.48;61.49
19783;BME280;10051;40.294;-3.754;2023-03-15T07:34:57;94372.94;;;8.91;61.55
19783;BME280;10051;40.294;-3.754;2023-03-15T07:37:26;94381.88;;;9.11;60.33
19783;BME280;10051;40.294;-3.754;2023-03-15T07:39:52;94494.63;;;10.09;60.06
19783;BME280;10051;40.294;-3.754;2023-03-15T07:42:18;94416.75;;;9.47;60.05
19783;BME280;10051;40.294;-3.754;2023-03-15T07:44:43;94321.78;;;9.14;58.20
19783;BME280;10051;40.294;-3.754;2023-03-15T07:47:09;94406.16;;;9.78;57.51
19783;BME280;10051;40.294;-3.754;2023-03-15T07:49:35;94512.09;;;10.55;56.80
19783;BME280;10051;40.294;-3.754;2023-03-15T07:52:00;94388.28;;;9.91;56.37
19783;BME280;10051;40.294;-3.754;2023-03-15T07:54:26;94280.31;;;9.27;57.04
19783;BME280;10051;40.294;-3.754;2023-03-15T07:56:53;94305.16;;;9.50;56.46
19783;BME280;10051;40.294;-3.754;2023-03-15T07:59:19;94482.13;;;10.56;56.90
19783;BME280;10051;40.294;-3.754;2023-03-15T08:01:44;94378.47;;;10.12;56.23
19783;BME280;10051;40.294;-3.754;2023-03-15T08:04:10;94491.78;;;11.21;54.88
19783;BME280;10051;40.294;-3.754;2023-03-15T08:06:36;94282.16;;;9.92;54.64
19783;BME280;10051;40.294;-3.754;2023-03-15T08:09:02;94299.56;;;10.22;53.99
19783;BME280;10051;40.294;-3.754;2023-03-15T08:11:30;94442.28;;;11.23;54.59
19783;BME280;10051;40.294;-3.754;2023-03-15T08:13:56;94383.13;;;10.81;54.01
19783;BME280;10051;40.294;-3.754;2023-03-15T08:16:21;94464.59;;;11.31;53.37
19783;BME280;10051;40.294;-3.754;2023-03-15T08:18:47;94494.09;;;11.63;53.39
19783;BME280;10051;40.294;-3.754;2023-03-15T08:21:13;94472.81;;;11.54;53.51
19783;BME280;10051;40.294;-3.754;2023-03-15T08:23:38;94480.25;;;11.76;51.98
19783;BME280;10051;40.294;-3.754;2023-03-15T08:26:04;94439.19;;;11.45;52.64
19783;BME280;10051;40.294;-3.754;2023-03-15T08:28:30;94485.91;;;11.94;51.85
19783;BME280;10051;40.294;-3.754;2023-03-15T08:30:56;94456.50;;;11.81;51.59
19783;BME280;10051;40.294;-3.754;2023-03-15T08:33:22;94427.75;;;11.60;51.97
19783;BME280;10051;40.294;-3.754;2023-03-15T08:35:53;94498.91;;;12.14;51.91
19783;BME280;10051;40.294;-3.754;2023-03-15T08:38:19;94415.59;;;11.65;51.55
19783;BME280;10051;40.294;-3.754;2023-03-15T08:40:44;94415.03;;;11.68;51.61
19783;BME280;10051;40.294;-3.754;2023-03-15T08:43:11;94520.63;;;12.55;51.15
19783;BME280;10051;40.294;-3.754;2023-03-15T08:45:37;94473.53;;;12.18;50.92
19783;BME280;10051;40.294;-3.754;2023-03-15T08:48:05;94521.56;;;12.64;51.29
19783;BME280;10051;40.294;-3.754;2023-03-15T08:50:31;94512.19;;;12.77;50.75
19783;BME280;10051;40.294;-3.754;2023-03-15T08:52:57;94510.94;;;12.69;50.39
19783;BME280;10051;40.294;-3.754;2023-03-15T08:55:23;94485.69;;;12.63;50.83
19783;BME280;10051;40.294;-3.754;2023-03-15T08:57:48;94437.91;;;12.45;50.25
19783;BME280;10051;40.294;-3.754;2023-03-15T09:00:15;94519.06;;;12.97;50.20
19783;BME280;10051;40.294;-3.754;2023-03-15T09:02:45;94414.38;;;12.30;49.16
19783;BME280;10051;40.294;-3.754;2023-03-15T09:05:13;94444.56;;;12.62;49.55
19783;BME280;10051;40.294;-3.754;2023-03-15T09:07:41;94463.03;;;12.81;49.13
19783;BME280;10051;40.294;-3.754;2023-03-15T09:10:08;94509.63;;;13.29;49.15
19783;BME280;10051;40.294;-3.754;2023-03-15T09:12:35;94493.72;;;13.34;48.65
19783;BME280;10051;40.294;-3.754;2023-03-15T09:15:00;94480.59;;;13.29;48.97
19783;BME280;10051;40.294;-3.754;2023-03-15T09:17:26;94349.31;;;12.44;48.42
19783;BME280;10051;40.294;-3.754;2023-03-15T09:19:52;94390.53;;;12.78;48.93
19783;BME280;10051;40.294;-3.754;2023-03-15T09:22:17;94338.13;;;12.53;47.30
19783;BME280;10051;40.294;-3.754;2023-03-15T09:24:43;94432.63;;;13.22;47.82
19783;BME280;10051;40.294;-3.754;2023-03-15T09:27:09;94509.66;;;13.95;47.22
19783;BME280;10051;40.294;-3.754;2023-03-15T09:29:36;94459.00;;;13.60;47.75
19783;BME280;10051;40.294;-3.754;2023-03-15T09:32:02;94513.63;;;14.12;46.78
19783;BME280;10051;40.294;-3.754;2023-03-15T09:34:28;94472.19;;;14.07;46.37
19783;BME280;10051;40.294;-3.754;2023-03-15T09:36:53;94511.78;;;14.54;45.89
19783;BME280;10051;40.294;-3.754;2023-03-15T09:39:20;94454.34;;;14.41;45.34
19783;BME280;10051;40.294;-3.754;2023-03-15T09:41:49;94511.78;;;14.82;45.82
19783;BME280;10051;40.294;-3.754;2023-03-15T09:49:40;94498.72;;;15.00;43.86
19783;BME280;10051;40.294;-3.754;2023-03-15T09:54:51;94511.91;;;15.14;43.51
19783;BME280;10051;40.294;-3.754;2023-03-15T10:00:26;94504.97;;;15.41;43.04
19783;BME280;10051;40.294;-3.754;2023-03-15T10:02:57;94409.25;;;14.60;43.59
19783;BME280;10051;40.294;-3.754;2023-03-15T10:05:40;94498.56;;;15.19;43.68
19783;BME280;10051;40.294;-3.754;2023-03-15T10:08:12;94499.09;;;15.44;43.00
19783;BME280;10051;40.294;-3.754;2023-03-15T10:10:46;94408.31;;;14.93;43.26
19783;BME280;10051;40.294;-3.754;2023-03-15T10:24:48;94499.25;;;15.93;43.77
19783;BME280;10051;40.294;-3.754;2023-03-15T10:27:21;94480.56;;;15.98;43.52
19783;BME280;10051;40.294;-3.754;2023-03-15T10:29:51;94457.78;;;15.97;43.02
19783;BME280;10051;40.294;-3.754;2023-03-15T10:32:19;94461.63;;;16.23;41.93
19783;BME280;10051;40.294;-3.754;2023-03-15T10:34:55;94489.78;;;16.41;41.17
19783;BME280;10051;40.294;-3.754;2023-03-15T10:37:23;94471.78;;;16.29;41.62
19783;BME280;10051;40.294;-3.754;2023-03-15T10:39:54;94484.69;;;16.62;41.86
19783;BME280;10051;40.294;-3.754;2023-03-15T10:44:53;94445.84;;;16.17;40.50
19783;BME280;10051;40.294;-3.754;2023-03-15T10:47:19;94413.34;;;16.03;38.91
19783;BME280;10051;40.294;-3.754;2023-03-15T10:49:46;94483.09;;;16.44;39.08
19783;BME280;10051;40.294;-3.754;2023-03-15T10:52:39;94445.75;;;16.31;39.42
19783;BME280;10051;40.294;-3.754;2023-03-15T10:55:46;94484.22;;;16.60;39.05
19783;BME280;10051;40.294;-3.754;2023-03-15T11:00:49;94462.22;;;16.60;40.13
19783;BME280;10051;40.294;-3.754;2023-03-15T11:03:24;94471.31;;;16.94;39.12
19783;BME280;10051;40.294;-3.754;2023-03-15T11:05:52;94449.59;;;16.83;38.42
19783;BME280;10051;40.294;-3.754;2023-03-15T11:08:21;94471.31;;;16.94;38.99
19783;BME280;10051;40.294;-3.754;2023-03-15T11:10:58;94446.47;;;16.81;38.58
19783;BME280;10051;40.294;-3.754;2023-03-15T11:13:26;94428.84;;;16.85;38.74
19783;BME280;10051;40.294;-3.754;2023-03-15T11:15:58;94468.22;;;17.27;38.25
19783;BME280;10051;40.294;-3.754;2023-03-15T11:18:45;94444.94;;;17.33;38.37
19783;BME280;10051;40.294;-3.754;2023-03-15T11:21:16;94436.03;;;17.37;37.24
19783;BME280;10051;40.294;-3.754;2023-03-15T11:23:46;94456.47;;;17.54;37.79
19783;BME280;10051;40.294;-3.754;2023-03-15T11:26:19;94401.97;;;17.22;37.80
19783;BME280;10051;40.294;-3.754;2023-03-15T11:28:58;94430.84;;;17.59;38.03
19783;BME280;10051;40.294;-3.754;2023-03-15T11:31:26;94445.31;;;17.88;38.40
19783;BME280;10051;40.294;-3.754;2023-03-15T11:36:43;94398.16;;;17.49;37.15
19783;BME280;10051;40.294;-3.754;2023-03-15T11:39:14;94366.19;;;17.19;37.50
19783;BME280;10051;40.294;-3.754;2023-03-15T11:41:50;94444.84;;;17.86;37.75
19783;BME280;10051;40.294;-3.754;2023-03-15T11:44:26;94389.69;;;17.65;37.45
19783;BME280;10051;40.294;-3.754;2023-03-15T11:49:52;94435.38;;;18.15;36.05
19783;BME280;10051;40.294;-3.754;2023-03-15T11:52:24;94403.34;;;18.02;36.25
19783;BME280;10051;40.294;-3.754;2023-03-15T11:54:53;94442.91;;;18.42;35.43
19783;BME280;10051;40.294;-3.754;2023-03-15T11:57:36;94440.03;;;18.56;34.88
19783;BME280;10051;40.294;-3.754;2023-03-15T12:00:16;94446.22;;;18.69;34.28
19783;BME280;10051;40.294;-3.754;2023-03-15T12:02:57;94413.78;;;18.16;35.01
19783;BME280;10051;40.294;-3.754;2023-03-15T12:05:48;94438.25;;;18.39;34.40
19783;BME280;10051;40.294;-3.754;2023-03-15T12:10:59;94384.69;;;18.11;35.47
19783;BME280;10051;40.294;-3.754;2023-03-15T12:13:28;94400.59;;;18.50;34.19
19783;BME280;10051;40.294;-3.754;2023-03-15T12:15:54;94390.31;;;18.69;33.99
19783;BME280;10051;40.294;-3.754;2023-03-15T12:18:28;94426.84;;;19.11;34.07
19783;BME280;10051;40.294;-3.754;2023-03-15T12:21:23;94427.00;;;19.27;32.38
19783;BME280;10051;40.294;-3.754;2023-03-15T12:24:05;94425.53;;;19.17;31.65
19783;BME280;10051;40.294;-3.754;2023-03-15T12:26:45;94389.25;;;19.04;31.71
19783;BME280;10051;40.294;-3.754;2023-03-15T12:29:24;94417.88;;;19.16;31.72
19783;BME280;10051;40.294;-3.754;2023-03-15T12:37:03;94370.94;;;19.02;31.71
19783;BME280;10051;40.294;-3.754;2023-03-15T12:39:38;94398.47;;;19.28;31.83
19783;BME280;10051;40.294;-3.754;2023-03-15T12:42:05;94405.84;;;19.43;32.08
19783;BME280;10051;40.294;-3.754;2023-03-15T12:47:07;94401.78;;;19.25;31.40
19783;BME280;10051;40.294;-3.754;2023-03-15T12:49:37;94382.97;;;19.42;31.02
19783;BME280;10051;40.294;-3.754;2023-03-15T12:54:42;94353.00;;;19.12;31.51
19783;BME280;10051;40.294;-3.754;2023-03-15T12:57:11;94358.16;;;19.29;31.98
19783;BME280;10051;40.294;-3.754;2023-03-15T13:04:47;94366.09;;;19.51;30.09
19783;BME280;10051;40.294;-3.754;2023-03-15T13:07:23;94353.25;;;19.65;29.54
19783;BME280;10051;40.294;-3.754;2023-03-15T13:10:06;94347.78;;;19.74;29.51
19783;BME280;10051;40.294;-3.754;2023-03-15T13:18:18;94329.34;;;19.81;28.46
19783;BME280;10051;40.294;-3.754;2023-03-15T13:23:29;94335.50;;;20.06;28.31
19783;BME280;10051;40.294;-3.754;2023-03-15T13:31:30;94319.13;;;20.20;27.72
19783;BME280;10051;40.294;-3.754;2023-03-15T13:34:09;94310.69;;;20.18;27.76
19783;BME280;10051;40.294;-3.754;2023-03-15T13:36:41;94281.09;;;19.86;27.85
19783;BME280;10051;40.294;-3.754;2023-03-15T13:39:37;94306.59;;;19.96;28.51
19783;BME280;10051;40.294;-3.754;2023-03-15T13:42:17;94307.91;;;20.15;28.03
19783;BME280;10051;40.294;-3.754;2023-03-15T13:44:44;94282.66;;;20.25;27.94
19783;BME280;10051;40.294;-3.754;2023-03-15T13:47:18;94296.56;;;20.59;27.68
19783;BME280;10051;40.294;-3.754;2023-03-15T13:49:51;94292.06;;;20.75;27.46
19783;BME280;10051;40.294;-3.754;2023-03-15T13:52:19;94289.75;;;20.74;27.56
19783;BME280;10051;40.294;-3.754;2023-03-15T13:54:45;94249.91;;;20.40;28.04
19783;BME280;10051;40.294;-3.754;2023-03-15T13:57:16;94257.44;;;20.50;28.38
19783;BME280;10051;40.294;-3.754;2023-03-15T14:02:21;94263.97;;;20.94;27.56
19783;BME280;10051;40.294;-3.754;2023-03-15T14:04:57;94271.91;;;21.06;27.87
19783;BME280;10051;40.294;-3.754;2023-03-15T14:07:36;94266.13;;;21.20;27.98
19783;BME280;10051;40.294;-3.754;2023-03-15T14:12:47;94263.41;;;21.33;27.58
19783;BME280;10051;40.294;-3.754;2023-03-15T14:15:17;94253.66;;;21.41;27.79
19783;BME280;10051;40.294;-3.754;2023-03-15T14:17:58;94253.81;;;21.48;27.10
19783;BME280;10051;40.294;-3.754;2023-03-15T14:20:28;94263.41;;;21.49;27.20